Time;durP1;ratioP1;P1;durP2;ratioP2;P2;SDS_P1;SDS_P2;PMS_P1;PMS_P2;Temp;Humidity;BMP_temperature;BMP_pressure;BME280_temperature;BME280_humidity;BME280_pressure;Samples;Min_cycle;Max_cycle;Signal;HPM_P1;HPM_P2
2022/09/01 00:01:17;;;;;;;12.32;3.55;;;;;;;18.94;52.38;101577.69;5055822;28;20486;-57
2022/09/01 00:03:47;;;;;;;12.20;3.85;;;;;;;19.01;52.28;101561.59;5055229;28;20055;-57
2022/09/01 00:06:21;;;;;;;10.45;3.50;;;;;;;18.89;51.58;101567.47;5055663;28;20044;-56
2022/09/01 00:08:50;;;;;;;14.10;3.92;;;;;;;19.01;51.64;101566.97;5055626;28;20045;-57
2022/09/01 00:11:17;;;;;;;10.27;3.50;;;;;;;19.02;51.97;101566.78;5055570;28;20091;-57
2022/09/01 00:13:44;;;;;;;13.88;3.40;;;;;;;19.00;51.40;101560.78;5055437;28;20048;-57
2022/09/01 00:16:15;;;;;;;8.75;3.78;;;;;;;19.05;52.21;101566.44;5055515;28;20045;-56
2022/09/01 00:18:45;;;;;;;12.25;3.78;;;;;;;18.89;52.04;101563.97;5055544;28;20045;-56
2022/09/01 00:21:12;;;;;;;12.85;3.88;;;;;;;18.94;52.37;101567.75;5055051;28;20402;-56
2022/09/01 00:23:39;;;;;;;11.88;3.58;;;;;;;18.85;52.40;101568.88;5017303;28;20077;-57
2022/09/01 00:26:06;;;;;;;10.10;3.65;;;;;;;18.79;52.12;101574.97;5055154;28;20091;-56
2022/09/01 00:28:35;;;;;;;11.10;3.33;;;;;;;18.77;52.20;101572.50;5055066;28;20091;-56
2022/09/01 00:31:03;;;;;;;12.57;3.50;;;;;;;18.73;52.34;101579.25;5055056;28;20044;-56
2022/09/01 00:33:31;;;;;;;11.70;3.70;;;;;;;18.65;52.56;101579.34;5053302;28;20094;-56
2022/09/01 00:35:57;;;;;;;12.10;3.53;;;;;;;18.76;52.98;101573.50;5054898;28;20045;-56
2022/09/01 00:38:25;;;;;;;13.27;3.50;;;;;;;18.80;52.78;101579.34;5054468;28;20121;-57
2022/09/01 00:40:52;;;;;;;9.18;3.58;;;;;;;18.82;52.91;101576.50;5054829;28;20099;-56
2022/09/01 00:43:34;;;;;;;12.80;3.70;;;;;;;18.80;53.03;101572.09;5053919;28;20483;-56
2022/09/01 00:46:04;;;;;;;12.02;3.47;;;;;;;18.71;53.38;101569.72;5052844;28;20048;-56
2022/09/01 00:48:32;;;;;;;14.13;3.95;;;;;;;18.67;53.49;101573.81;5054917;28;20106;-56
2022/09/01 00:51:00;;;;;;;12.80;3.60;;;;;;;18.66;54.02;101572.13;5054777;28;20056;-57
2022/09/01 00:53:27;;;;;;;11.70;3.60;;;;;;;18.63;53.93;101565.28;5054773;28;20045;-56
2022/09/01 00:55:55;;;;;;;12.43;3.92;;;;;;;18.59;53.65;101564.81;5053596;28;20048;-57
2022/09/01 00:58:21;;;;;;;9.32;3.70;;;;;;;18.54;53.62;101571.78;5054744;28;20057;-57
2022/09/01 01:00:51;;;;;;;9.85;3.70;;;;;;;18.60;53.78;101573.72;5054077;28;20514;-56
2022/09/01 01:03:18;;;;;;;13.38;3.90;;;;;;;18.58;54.01;101565.00;5054573;28;20055;-57
2022/09/01 01:05:53;;;;;;;10.48;3.58;;;;;;;18.56;54.40;101572.41;5054329;28;20047;-57
2022/09/01 01:08:32;;;;;;;10.57;3.92;;;;;;;18.56;54.73;101559.81;5052797;28;20040;-57
2022/09/01 01:11:05;;;;;;;15.15;4.00;;;;;;;18.54;54.04;101563.72;5054365;28;20072;-57
2022/09/01 01:13:51;;;;;;;10.05;4.18;;;;;;;18.51;54.45;101562.22;5054446;28;20045;-57
2022/09/01 01:16:18;;;;;;;9.80;3.60;;;;;;;18.51;54.20;101564.09;5054397;28;20041;-56
2022/09/01 01:18:45;;;;;;;10.23;3.70;;;;;;;18.38;54.21;101562.06;5054326;28;20406;-57
2022/09/01 01:24:28;;;;;;;11.07;3.90;;;;;;;18.48;54.97;101559.06;5016298;28;20066;-56
2022/09/01 01:26:58;;;;;;;10.77;3.75;;;;;;;18.45;54.66;101559.47;5054193;28;20510;-57
2022/09/01 01:29:31;;;;;;;11.82;4.20;;;;;;;18.46;54.68;101563.81;5053901;28;20075;-57
2022/09/01 01:31:59;;;;;;;14.18;3.90;;;;;;;18.37;54.34;101558.53;5052549;28;20048;-57
2022/09/01 01:34:26;;;;;;;9.05;3.50;;;;;;;18.42;54.25;101568.72;5052081;28;20098;-56
2022/09/01 01:36:54;;;;;;;14.25;3.40;;;;;;;18.42;54.74;101563.34;5053196;28;20422;-56
2022/09/01 01:39:24;;;;;;;11.32;3.90;;;;;;;18.40;55.06;101568.91;5053661;28;20094;-56
2022/09/01 01:41:53;;;;;;;17.80;3.83;;;;;;;18.44;55.19;101563.97;5053867;28;20072;-56
2022/09/01 01:44:26;;;;;;;12.35;3.83;;;;;;;18.46;55.12;101571.84;5053450;28;20222;-57
2022/09/01 01:46:56;;;;;;;8.32;3.60;;;;;;;18.37;55.52;101573.81;5052566;28;20118;-56
2022/09/01 01:49:27;;;;;;;10.77;3.88;;;;;;;18.36;55.04;101570.28;5053478;28;20103;-56
2022/09/01 01:51:56;;;;;;;8.77;3.40;;;;;;;18.39;55.51;101578.00;5053186;28;20453;-56
2022/09/01 01:54:31;;;;;;;9.27;3.50;;;;;;;18.36;55.58;101577.53;5053177;28;20407;-57
2022/09/01 01:56:59;;;;;;;9.20;3.70;;;;;;;18.38;55.54;101576.31;5052347;28;20045;-57
2022/09/01 01:59:28;;;;;;;11.23;3.70;;;;;;;18.37;55.84;101579.16;5052990;28;20052;-56
2022/09/01 02:01:56;;;;;;;7.75;3.70;;;;;;;18.33;55.68;101578.72;5053167;28;20044;-56
2022/09/01 02:04:23;;;;;;;9.75;3.50;;;;;;;18.31;55.69;101583.44;5052481;28;20051;-56
2022/09/01 02:06:52;;;;;;;12.05;4.03;;;;;;;18.30;56.13;101586.31;5053032;28;20041;-57
2022/09/01 02:09:22;;;;;;;8.30;3.38;;;;;;;18.28;56.50;101581.13;5053037;28;20443;-57
2022/09/01 02:11:54;;;;;;;14.20;3.53;;;;;;;18.20;56.28;101576.66;5052839;28;20045;-57
2022/09/01 02:14:21;;;;;;;11.43;3.80;;;;;;;18.19;56.46;101574.16;5053214;28;20053;-57
2022/09/01 02:16:48;;;;;;;13.95;3.72;;;;;;;18.18;57.11;101575.19;5053028;28;20095;-57
2022/09/01 02:19:19;;;;;;;11.25;3.78;;;;;;;18.14;56.83;101581.97;5052992;28;20044;-57
2022/09/01 02:21:52;;;;;;;10.80;3.90;;;;;;;18.11;56.67;101585.00;5051711;28;20065;-61
2022/09/01 02:24:22;;;;;;;11.18;3.60;;;;;;;18.06;56.80;101580.16;5053229;28;20045;-57
2022/09/01 02:26:49;;;;;;;11.02;3.60;;;;;;;18.06;57.41;101585.53;5052841;28;20095;-56
2022/09/01 02:29:21;;;;;;;13.07;3.67;;;;;;;18.06;57.44;101582.84;5053110;28;20049;-56
2022/09/01 02:31:51;;;;;;;13.88;3.58;;;;;;;18.03;57.34;101584.06;5052400;28;20041;-56
2022/09/01 02:34:22;;;;;;;9.02;3.95;;;;;;;17.93;57.33;101583.47;5052013;28;20045;-56
2022/09/01 02:36:52;;;;;;;;;;;;;;;17.91;57.69;101579.31;5052770;28;20041;-56
2022/09/01 02:39:27;;;;;;;9.95;3.53;;;;;;;17.89;57.99;101576.81;5053085;28;20016;-56
2022/09/01 02:41:55;;;;;;;11.63;3.70;;;;;;;17.89;58.41;101573.31;5052798;28;20056;-56
2022/09/01 02:44:27;;;;;;;11.00;3.63;;;;;;;17.83;58.12;101572.16;5052922;28;20049;-58
2022/09/01 02:46:54;;;;;;;10.95;3.70;;;;;;;17.81;58.40;101561.59;5049289;28;20490;-56
2022/09/01 02:49:24;;;;;;;13.30;3.72;;;;;;;17.85;58.62;101575.53;5052919;28;20114;-57
2022/09/01 02:51:53;;;;;;;10.15;3.70;;;;;;;17.78;59.07;101569.19;5051820;28;20044;-56
2022/09/01 02:54:21;;;;;;;9.93;3.95;;;;;;;17.75;58.82;101566.84;5052866;28;20049;-56
2022/09/01 02:56:48;;;;;;;10.18;3.60;;;;;;;17.75;57.74;101566.84;5051525;28;20070;-56
2022/09/01 02:59:20;;;;;;;8.68;3.78;;;;;;;17.74;58.45;101571.38;5052802;28;20048;-56
2022/09/01 03:01:49;;;;;;;8.93;3.70;;;;;;;17.69;58.24;101565.72;5052964;28;20120;-56
2022/09/01 03:04:17;;;;;;;11.07;3.72;;;;;;;17.71;57.95;101569.06;5052368;28;20076;-56
2022/09/01 03:06:44;;;;;;;12.40;3.72;;;;;;;17.72;57.97;101567.19;5052848;28;20041;-56
2022/09/01 03:09:14;;;;;;;13.60;3.78;;;;;;;17.76;57.84;101573.91;5052908;28;20049;-56
2022/09/01 03:11:45;;;;;;;16.30;3.90;;;;;;;17.77;57.53;101571.03;5052838;28;20128;-56
2022/09/01 03:14:13;;;;;;;;;;;;;;;17.79;58.27;101568.16;5053343;28;20128;-56
2022/09/01 03:16:40;;;;;;;11.70;3.80;;;;;;;17.76;58.33;101574.72;5052876;28;20366;-56
2022/09/01 03:19:09;;;;;;;10.75;4.07;;;;;;;17.76;57.99;101568.53;5052809;28;20041;-56
2022/09/01 03:21:41;;;;;;;14.15;3.60;;;;;;;17.75;57.63;101567.69;5052445;28;20037;-56
2022/09/01 03:24:11;;;;;;;13.88;3.65;;;;;;;17.78;57.55;101579.91;5013551;28;20071;-56
2022/09/01 03:26:39;;;;;;;10.70;4.00;;;;;;;17.72;58.08;101573.44;5052553;28;20437;-56
2022/09/01 03:29:07;;;;;;;8.85;3.47;;;;;;;17.71;58.18;101576.28;5052486;28;20048;-56
2022/09/01 03:31:36;;;;;;;12.82;3.85;;;;;;;17.75;58.00;101574.91;5056182;28;20057;-56
2022/09/01 03:34:04;;;;;;;11.73;3.67;;;;;;;17.73;57.88;101575.06;5054359;28;20053;-56
2022/09/01 03:36:35;;;;;;;9.82;3.40;;;;;;;17.71;57.99;101571.75;5056296;28;20091;-56
2022/09/01 03:39:03;;;;;;;10.77;4.00;;;;;;;17.76;57.46;101569.34;5055900;28;20052;-56
2022/09/01 03:41:31;;;;;;;10.75;3.78;;;;;;;17.65;57.78;101575.97;5055847;28;20136;-56
2022/09/01 03:43:58;;;;;;;8.18;3.70;;;;;;;17.57;58.39;101570.69;5054514;28;20045;-56
2022/09/01 03:46:30;;;;;;;9.37;3.60;;;;;;;17.56;58.75;101573.56;5055576;28;20036;-56
2022/09/01 03:49:02;;;;;;;12.07;4.32;;;;;;;17.53;58.93;101572.06;5055448;28;20433;-56
2022/09/01 03:51:29;;;;;;;11.15;3.85;;;;;;;17.48;58.89;101566.38;5055708;28;20110;-57
2022/09/01 03:53:58;;;;;;;12.95;3.97;;;;;;;17.51;58.52;101562.53;5055527;28;20049;-56
2022/09/01 03:56:27;;;;;;;10.38;3.65;;;;;;;17.52;58.59;101559.66;5055386;28;20044;-56
2022/09/01 03:58:57;;;;;;;8.88;3.55;;;;;;;17.47;58.61;101556.69;5055515;28;20092;-57
2022/09/01 04:01:26;;;;;;;13.25;3.72;;;;;;;17.43;58.75;101563.44;5055445;28;20544;-56
2022/09/01 04:03:53;;;;;;;12.20;3.50;;;;;;;17.42;58.34;101556.38;5054020;28;20502;-57
2022/09/01 04:06:24;;;;;;;9.70;3.50;;;;;;;17.39;58.46;101560.28;5055131;28;20063;-56
2022/09/01 04:08:56;;;;;;;8.55;3.55;;;;;;;17.39;58.22;101554.91;5055634;28;20123;-56
2022/09/01 04:11:24;;;;;;;9.73;3.75;;;;;;;17.36;58.53;101560.63;5055348;28;20533;-58
2022/09/01 04:13:52;;;;;;;10.10;3.60;;;;;;;17.31;58.56;101554.13;5055449;28;20132;-57
2022/09/01 04:19:15;;;;;;;8.70;3.60;;;;;;;17.31;58.42;101548.78;5055234;28;20053;-57
2022/09/01 04:21:43;;;;;;;;;;;;;;;17.26;58.38;101555.50;5054929;28;20102;-56
2022/09/01 04:24:14;;;;;;;10.90;3.63;;;;;;;17.25;58.60;101553.81;4926243;28;19928;-57
2022/09/01 04:26:46;;;;;;;11.30;3.70;;;;;;;17.23;58.46;101557.72;5054812;28;20091;-57
2022/09/01 04:29:17;;;;;;;12.50;4.10;;;;;;;17.20;58.83;101558.88;5055022;28;20053;-57
2022/09/01 04:31:47;;;;;;;11.48;3.80;;;;;;;17.29;58.76;101558.84;5054319;28;20055;-57
2022/09/01 04:34:15;;;;;;;8.35;3.72;;;;;;;17.28;58.67;101560.66;5054595;28;20041;-57
2022/09/01 04:36:45;;;;;;;11.00;3.80;;;;;;;17.26;58.51;101558.19;5054357;28;20116;-57
2022/09/01 04:39:12;;;;;;;14.35;4.30;;;;;;;17.26;58.53;101555.50;5054555;28;20044;-57
2022/09/01 04:41:44;;;;;;;12.88;4.40;;;;;;;17.22;58.18;101556.03;5054656;28;20052;-57
2022/09/01 04:44:17;;;;;;;11.85;4.25;;;;;;;17.19;58.35;101557.22;5054678;28;20065;-57
2022/09/01 04:46:47;;;;;;;8.70;3.55;;;;;;;17.17;58.59;101556.59;5053636;28;20414;-57
2022/09/01 04:49:20;;;;;;;13.90;4.00;;;;;;;17.20;58.68;101558.88;5073225;28;20052;-57
2022/09/01 04:51:50;;;;;;;16.38;4.10;;;;;;;17.20;58.20;101558.06;5074012;28;20040;-57
2022/09/01 04:54:19;;;;;;;14.25;4.40;;;;;;;17.25;57.99;101561.03;5073784;28;20044;-56
2022/09/01 04:56:49;;;;;;;15.95;4.60;;;;;;;17.16;58.49;101557.59;5074007;28;20054;-57
2022/09/01 04:59:20;;;;;;;11.55;4.30;;;;;;;17.18;58.11;101563.59;5074382;28;20075;-57
2022/09/01 05:01:56;;;;;;;11.57;4.05;;;;;;;17.14;58.40;101564.97;5073967;28;20051;-57
2022/09/01 05:04:26;;;;;;;9.55;4.20;;;;;;;17.24;58.16;101560.19;5073699;28;20078;-56
2022/09/01 05:06:59;;;;;;;20.45;4.25;;;;;;;17.22;58.55;101574.81;5073795;28;20465;-56
2022/09/01 05:09:37;;;;;;;9.73;3.78;;;;;;;17.25;58.87;101564.56;5074234;28;20044;-57
2022/09/01 05:12:21;;;;;;;14.43;4.20;;;;;;;17.25;58.83;101564.56;5073891;28;20045;-57
2022/09/01 05:14:48;;;;;;;11.15;4.30;;;;;;;17.23;58.80;101566.59;5074056;28;20543;-56
2022/09/01 05:17:17;;;;;;;19.42;9.38;;;;;;;17.32;58.38;101562.00;5073972;28;20346;-56
2022/09/01 05:19:49;;;;;;;14.70;5.40;;;;;;;17.29;58.94;101569.56;5074101;28;20173;-57
2022/09/01 05:22:20;;;;;;;11.45;5.15;;;;;;;17.30;58.60;101574.75;5066057;28;20056;-56
2022/09/01 05:24:54;;;;;;;10.32;4.32;;;;;;;17.22;59.15;101561.41;5054675;28;20047;-57
2022/09/01 05:27:22;;;;;;;11.77;4.40;;;;;;;17.26;58.70;101568.06;5073980;28;20048;-57
2022/09/01 05:29:49;;;;;;;12.68;4.07;;;;;;;17.12;58.85;101574.19;5072668;28;20052;-57
2022/09/01 05:32:15;;;;;;;16.35;4.22;;;;;;;17.11;58.50;101569.84;5073075;28;20512;-57
2022/09/01 05:34:44;;;;;;;15.85;4.15;;;;;;;17.20;58.89;101572.28;5073512;28;20045;-56
2022/09/01 05:37:15;;;;;;;12.13;3.53;;;;;;;17.27;58.34;101570.56;5073480;28;20183;-56
2022/09/01 05:39:41;;;;;;;18.27;4.13;;;;;;;17.29;58.41;101574.94;5056206;28;20044;-56
2022/09/01 05:42:08;;;;;;;12.55;3.75;;;;;;;17.18;58.66;101576.16;5053557;28;20537;-57
2022/09/01 05:44:42;;;;;;;15.45;4.00;;;;;;;17.30;58.21;101579.25;5053454;28;20053;-56
2022/09/01 05:47:12;;;;;;;12.60;3.85;;;;;;;17.31;58.38;101583.63;5053062;28;20033;-57
2022/09/01 05:49:39;;;;;;;12.13;4.03;;;;;;;17.39;58.75;101584.41;5052792;28;20336;-56
2022/09/01 05:52:08;;;;;;;13.63;4.30;;;;;;;17.37;58.09;101580.22;5052123;28;20041;-56
2022/09/01 05:54:36;;;;;;;14.02;3.83;;;;;;;17.41;58.46;101585.06;5052687;28;20132;-57
2022/09/01 05:57:06;;;;;;;12.82;3.95;;;;;;;17.36;58.03;101587.44;5053248;28;20067;-57
2022/09/01 05:59:52;;;;;;;18.87;3.57;;;;;;;17.38;58.66;101589.94;5053365;28;20480;-57
2022/09/01 06:02:22;;;;;;;11.80;3.97;;;;;;;17.31;58.11;101591.69;5053182;28;20052;-57
2022/09/01 06:04:51;;;;;;;18.20;3.90;;;;;;;17.37;57.84;101585.59;5052607;28;20051;-57
2022/09/01 06:07:27;;;;;;;10.07;3.70;;;;;;;17.48;58.20;101589.69;5051865;28;20055;-57
2022/09/01 06:09:56;;;;;;;21.45;3.88;;;;;;;17.42;57.89;101584.03;5053136;28;20514;-57
2022/09/01 06:12:23;;;;;;;13.15;3.88;;;;;;;17.45;58.33;101585.53;5053154;28;20517;-56
2022/09/01 06:14:52;;;;;;;11.63;3.75;;;;;;;17.49;58.51;101591.38;5052956;28;20437;-57
2022/09/01 06:17:23;;;;;;;16.63;4.07;;;;;;;17.47;58.59;101588.88;5053361;28;20091;-57
2022/09/01 06:19:54;;;;;;;17.90;3.60;;;;;;;17.39;57.79;101592.47;5053292;28;20049;-58
2022/09/01 06:22:23;;;;;;;15.00;3.90;;;;;;;17.45;58.66;101594.41;5029254;28;20061;-57
2022/09/01 06:24:53;;;;;;;12.57;4.00;;;;;;;17.52;58.40;101589.19;5042199;28;20505;-57
2022/09/01 06:27:21;;;;;;;15.32;3.60;;;;;;;17.45;57.89;101586.38;5053012;28;20540;-57
2022/09/01 06:29:52;;;;;;;13.50;4.10;;;;;;;17.58;58.65;101587.63;5053082;28;20048;-56
2022/09/01 06:32:19;;;;;;;15.07;3.78;;;;;;;17.51;58.21;101589.34;5052959;28;20072;-57
2022/09/01 06:34:49;;;;;;;14.60;3.47;;;;;;;17.45;58.27;101590.91;5052542;28;20068;-56
2022/09/01 06:37:18;;;;;;;14.05;3.50;;;;;;;17.41;57.73;101586.91;5052810;28;20136;-57
2022/09/01 06:39:50;;;;;;;16.20;3.75;;;;;;;17.46;57.28;101587.19;5052631;28;20403;-57
2022/09/01 06:42:18;;;;;;;10.75;3.78;;;;;;;17.60;57.63;101593.63;5048894;28;20095;-63
2022/09/01 06:44:51;;;;;;;9.55;3.50;;;;;;;17.64;57.83;101593.13;5033659;28;20391;-63
2022/09/01 06:47:18;;;;;;;11.05;3.88;;;;;;;17.74;58.55;101595.53;5050644;28;20120;-63
2022/09/01 06:49:44;;;;;;;16.50;3.72;;;;;;;17.79;57.50;101597.66;5050879;28;20055;-64
2022/09/01 06:52:22;;;;;;;17.65;4.00;;;;;;;17.82;57.42;101594.63;5052404;28;20526;-63
2022/09/01 06:54:52;;;;;;;15.77;3.88;;;;;;;17.93;56.83;101599.59;5032388;28;20045;-63
2022/09/01 06:57:21;;;;;;;10.65;3.45;;;;;;;17.85;56.78;101594.31;5033798;28;20076;-63
2022/09/01 07:00:16;;;;;;;12.38;3.60;;;;;;;17.88;57.32;101601.16;5017216;28;20037;-63
2022/09/01 07:02:46;;;;;;;11.75;3.08;;;;;;;18.03;56.67;101599.34;5034513;28;20052;-63
2022/09/01 07:05:31;;;;;;;18.60;3.63;;;;;;;18.15;59.04;101597.03;5034293;28;20505;-62
2022/09/01 07:08:25;;;;;;;8.57;3.00;;;;;;;18.16;61.08;101601.41;5051397;28;20041;-62
2022/09/01 07:11:05;;;;;;;12.43;3.70;;;;;;;18.16;62.88;101594.16;5055778;28;20094;-62
2022/09/01 07:13:55;;;;;;;12.02;3.35;;;;;;;18.21;60.70;101599.84;5046703;28;20038;-62
2022/09/01 07:16:44;;;;;;;16.27;3.95;;;;;;;18.24;56.82;101598.63;5061993;28;20060;-63
2022/09/01 07:19:14;;;;;;;12.80;4.05;;;;;;;18.39;60.13;101595.94;5076057;28;20075;-63
2022/09/01 07:21:52;;;;;;;9.10;3.35;;;;;;;18.43;60.53;101594.56;5053287;28;20045;-62
2022/09/01 07:24:38;;;;;;;11.23;3.00;;;;;;;18.50;59.61;101600.88;5059656;28;20551;-62
2022/09/01 07:27:26;;;;;;;12.73;3.35;;;;;;;18.47;58.78;101590.47;5069368;28;20486;-62
2022/09/01 07:29:55;;;;;;;20.90;4.03;;;;;;;18.54;58.18;101595.97;5076003;28;20448;-62
2022/09/01 07:32:22;;;;;;;9.35;3.03;;;;;;;18.63;56.78;101597.53;5057415;28;20037;-62
2022/09/01 07:35:11;;;;;;;9.30;2.80;;;;;;;18.73;56.38;101599.91;5054845;28;20482;-62
2022/09/01 07:37:38;;;;;;;14.73;2.90;;;;;;;18.76;54.11;101597.69;5040463;28;20045;-62
2022/09/01 07:40:27;;;;;;;14.50;2.90;;;;;;;18.86;55.96;101588.53;5031897;28;20038;-62
2022/09/01 07:43:36;;;;;;;13.82;3.08;;;;;;;18.93;55.40;101589.44;5063715;28;20048;-62
2022/09/01 07:46:24;;;;;;;15.05;3.17;;;;;;;18.95;53.63;101590.91;5044248;28;20075;-62
2022/09/01 07:49:12;;;;;;;9.95;3.00;;;;;;;19.02;55.04;101593.69;5067209;28;20071;-62
2022/09/01 07:51:56;;;;;;;8.32;2.92;;;;;;;19.09;55.66;101591.91;5046688;28;20041;-62
2022/09/01 07:54:24;;;;;;;10.05;3.00;;;;;;;19.11;54.25;101592.53;5053222;28;20478;-62
2022/09/01 07:56:54;;;;;;;17.90;3.10;;;;;;;19.29;54.13;101589.44;5046691;28;20483;-62
2022/09/01 07:59:21;;;;;;;13.20;2.90;;;;;;;19.31;52.08;101595.44;5049662;28;20068;-62
2022/09/01 08:02:04;;;;;;;12.55;3.25;;;;;;;19.46;54.00;101590.00;5047734;28;20087;-62
2022/09/01 08:04:33;;;;;;;10.65;2.78;;;;;;;19.51;50.87;101595.63;5049190;28;20128;-62
2022/09/01 08:07:00;;;;;;;12.32;2.88;;;;;;;19.62;51.90;101601.53;5042324;28;20095;-62
2022/09/01 08:09:27;;;;;;;11.07;3.00;;;;;;;19.79;50.21;101597.56;5045470;28;20049;-62
2022/09/01 08:11:59;;;;;;;13.88;3.63;;;;;;;19.88;49.56;101599.13;5054365;28;20033;-62
2022/09/01 08:14:30;;;;;;;10.60;2.97;;;;;;;19.90;49.66;101601.59;5050978;28;20041;-62
2022/09/01 08:16:59;;;;;;;12.05;2.90;;;;;;;20.04;48.09;101602.53;5050408;28;20041;-62
2022/09/01 08:19:27;;;;;;;8.98;2.83;;;;;;;20.16;49.24;101598.28;5065019;28;20398;-62
2022/09/01 08:22:13;;;;;;;10.18;2.63;;;;;;;20.26;46.96;101603.31;5024369;28;20053;-62
2022/09/01 08:24:54;;;;;;;6.65;2.20;;;;;;;20.45;44.23;101602.59;5046888;28;20555;-62
2022/09/01 08:27:21;;;;;;;7.25;2.45;;;;;;;20.53;43.17;101599.72;5061211;28;20041;-62
2022/09/01 08:29:48;;;;;;;8.00;2.50;;;;;;;20.72;43.80;101594.69;5058390;28;20094;-62
2022/09/01 08:32:15;;;;;;;8.70;2.13;;;;;;;20.78;42.64;101601.97;5042935;28;20069;-62
2022/09/01 08:34:42;;;;;;;9.35;2.53;;;;;;;20.94;41.63;101598.09;5058663;28;20092;-62
2022/09/01 08:37:09;;;;;;;16.75;2.55;;;;;;;20.97;42.04;101594.16;5055358;28;20041;-63
2022/09/01 08:39:37;;;;;;;9.30;2.58;;;;;;;21.20;40.81;101596.50;5054119;28;20068;-63
2022/09/01 08:42:26;;;;;;;11.77;2.38;;;;;;;21.36;42.31;101589.91;5058932;28;20060;-63
2022/09/01 08:45:20;;;;;;;12.88;2.78;;;;;;;21.39;41.17;101589.47;5057160;28;20498;-61
2022/09/01 08:47:47;;;;;;;10.20;2.40;;;;;;;21.55;41.26;101601.78;5041842;28;20040;-61
2022/09/01 08:50:24;;;;;;;10.13;2.30;;;;;;;21.59;39.81;101600.34;5065322;28;20048;-59
2022/09/01 08:53:39;;;;;;;12.52;2.60;;;;;;;21.71;39.14;101604.09;5057803;28;20043;-59
2022/09/01 08:56:09;;;;;;;9.75;2.33;;;;;;;21.76;37.78;101592.69;5044705;28;20051;-59
2022/09/01 08:58:36;;;;;;;7.28;2.22;;;;;;;21.98;37.69;101596.00;5059720;28;20063;-60
2022/09/01 09:01:33;;;;;;;9.55;2.50;;;;;;;22.17;37.68;101597.81;5064886;28;20037;-60
2022/09/01 09:04:30;;;;;;;4.90;1.83;;;;;;;22.35;36.06;101597.19;5057443;28;20036;-60
2022/09/01 09:07:36;;;;;;;10.52;2.20;;;;;;;22.56;36.33;101585.28;5043428;28;20046;-60
2022/09/01 09:10:16;;;;;;;6.88;2.40;;;;;;;22.62;35.64;101589.00;5047458;28;20048;-60
2022/09/01 09:13:11;;;;;;;16.25;2.45;;;;;;;22.74;35.71;101581.91;5052233;28;20046;-60
2022/09/01 09:15:50;;;;;;;7.35;2.20;;;;;;;23.13;34.55;101579.22;5069235;28;20052;-60
2022/09/01 09:18:42;;;;;;;17.95;2.08;;;;;;;23.33;34.54;101571.81;5054144;28;20051;-60
2022/09/01 09:21:28;;;;;;;7.18;1.83;;;;;;;23.35;34.38;101569.69;5048251;28;20050;-60
2022/09/01 09:24:07;;;;;;;9.43;2.00;;;;;;;23.41;32.70;101581.53;4991431;28;20033;-60
2022/09/01 09:26:34;;;;;;;7.55;1.73;;;;;;;23.53;33.10;101574.34;5053242;28;20502;-60
2022/09/01 09:29:08;;;;;;;5.03;1.90;;;;;;;23.96;31.38;101570.09;5057132;28;20052;-60
2022/09/01 09:31:42;;;;;;;9.07;2.03;;;;;;;24.10;31.67;101563.47;5062975;28;20060;-60
2022/09/01 09:34:31;;;;;;;9.15;1.90;;;;;;;25.23;30.83;101569.38;5053989;28;20098;-60
2022/09/01 09:45:36;;;;;;;4.05;1.77;;;;;;;30.28;21.47;101565.25;5118826;27;20372;-60
2022/09/01 09:48:27;;;;;;;7.20;2.00;;;;;;;30.52;21.92;101568.41;5121640;28;20040;-61
2022/09/01 09:50:54;;;;;;;6.38;1.60;;;;;;;30.28;21.57;101563.34;5121016;28;20040;-60
2022/09/01 09:53:27;;;;;;;7.43;2.00;;;;;;;29.86;22.35;101554.09;5122334;27;20105;-60
2022/09/01 09:56:16;;;;;;;4.38;1.88;;;;;;;29.78;23.08;101548.28;5102398;28;20064;-60
2022/09/01 09:58:46;;;;;;;5.85;2.08;;;;;;;28.45;23.36;101548.66;5116271;28;20047;-60
2022/09/01 10:04:02;;;;;;;7.25;2.35;;;;;;;28.10;23.77;101538.09;5105369;27;20400;-60
2022/09/01 10:06:37;;;;;;;8.17;2.20;;;;;;;28.01;24.34;101534.16;5100154;28;20393;-60
2022/09/01 10:09:07;;;;;;;6.68;1.95;;;;;;;28.07;24.33;101531.25;5103041;28;20494;-61
2022/09/01 10:11:41;;;;;;;12.70;2.65;;;;;;;27.38;25.35;101535.13;5086045;28;20379;-60
2022/09/01 10:14:14;;;;;;;7.95;2.10;;;;;;;27.37;24.92;101528.00;5105655;28;20050;-61
2022/09/01 10:16:57;;;;;;;8.48;2.30;;;;;;;27.57;25.84;101532.13;5092178;28;20045;-60
2022/09/01 10:19:26;;;;;;;6.15;2.20;;;;;;;27.67;25.07;101529.59;5107285;28;20047;-60
2022/09/01 10:21:55;;;;;;;8.50;2.20;;;;;;;27.43;25.28;101517.19;5078740;28;20465;-60
2022/09/01 10:24:37;;;;;;;7.93;2.40;;;;;;;27.72;25.61;101526.94;5050530;28;20462;-60
2022/09/01 10:27:12;;;;;;;6.20;2.15;;;;;;;27.72;25.59;101526.94;5087969;28;20079;-61
2022/09/01 10:29:45;;;;;;;8.98;2.30;;;;;;;27.86;25.64;101529.31;5089657;28;20750;-60
2022/09/01 10:32:21;;;;;;;5.97;1.67;;;;;;;27.90;24.52;101517.66;5101214;28;20116;-65
2022/09/01 10:34:58;;;;;;;7.88;2.00;;;;;;;27.75;24.14;101525.59;5105008;28;20121;-61
2022/09/01 10:37:26;;;;;;;5.20;1.90;;;;;;;27.70;25.97;101526.34;5086563;28;20106;-60
2022/09/01 10:40:18;;;;;;;9.68;2.00;;;;;;;27.73;25.34;101514.94;5099795;28;20048;-61
2022/09/01 10:42:52;;;;;;;10.05;2.13;;;;;;;27.66;25.22;101513.47;5092946;28;20039;-61
2022/09/01 10:45:38;;;;;;;5.18;2.05;;;;;;;27.45;25.49;101521.34;5083664;28;20044;-61
2022/09/01 10:48:29;;;;;;;8.60;2.20;;;;;;;27.33;25.67;101515.97;5101607;28;20054;-61
2022/09/01 10:51:17;;;;;;;5.63;2.20;;;;;;;27.49;25.65;101514.31;5093127;28;20044;-60
2022/09/01 10:53:47;;;;;;;6.13;2.00;;;;;;;27.29;26.15;101514.00;5092462;28;20497;-60
2022/09/01 10:56:18;;;;;;;10.20;2.40;;;;;;;27.60;25.92;101509.00;5096240;28;20052;-61
2022/09/01 10:59:08;;;;;;;5.15;2.10;;;;;;;27.33;25.79;101498.81;5086852;28;20414;-60
2022/09/01 11:02:17;;;;;;;5.20;1.90;;;;;;;26.53;26.56;101500.59;5090339;28;20064;-60
2022/09/01 11:07:32;;;;;;;9.10;3.40;;;;;;;26.37;27.70;101502.19;5113956;27;20396;-59
2022/09/01 11:15:44;;;;;;;15.80;7.47;;;;;;;26.17;27.87;101500.69;5118174;27;20044;-61
2022/09/01 11:18:15;;;;;;;16.48;5.43;;;;;;;26.28;27.77;101488.13;5097561;28;20032;-60
2022/09/01 11:20:44;;;;;;;15.60;6.97;;;;;;;26.23;27.43;101488.88;5098458;28;20047;-60
2022/09/01 11:23:21;;;;;;;12.65;6.10;;;;;;;25.70;28.15;101491.75;5051710;28;20074;-60
2022/09/01 11:25:51;;;;;;;9.05;3.45;;;;;;;25.37;28.12;101488.56;5096697;28;20048;-60
2022/09/01 11:28:40;;;;;;;25.92;14.25;;;;;;;25.89;28.25;101484.28;5101998;28;20074;-60
2022/09/01 11:31:15;;;;;;;16.83;6.80;;;;;;;26.40;27.85;101490.84;5107479;28;20134;-60
2022/09/01 11:34:07;;;;;;;13.82;7.03;;;;;;;26.72;27.22;101488.47;5088644;28;20042;-60
2022/09/01 11:36:46;;;;;;;8.43;2.17;;;;;;;26.46;27.25;101489.03;5099611;28;20048;-60
2022/09/01 11:39:21;;;;;;;9.10;2.40;;;;;;;26.31;27.83;101487.66;5087966;28;20036;-60
2022/09/01 11:45:01;;;;;;;17.65;3.58;;;;;;;27.03;26.62;101480.84;5122440;27;20390;-59
2022/09/01 11:47:37;;;;;;;12.07;2.20;;;;;;;26.94;25.91;101476.88;5113403;27;20054;-60
2022/09/01 11:50:16;;;;;;;16.98;8.27;;;;;;;27.30;26.72;101475.59;5106772;27;20435;-60
2022/09/01 11:52:53;;;;;;;11.55;2.50;;;;;;;27.39;25.46;101474.09;5109655;27;20107;-60
2022/09/01 11:55:38;;;;;;;13.85;7.88;;;;;;;27.97;25.97;101475.78;5122742;28;20047;-61
2022/09/01 11:58:10;;;;;;;11.98;3.42;;;;;;;27.94;24.98;101467.03;5104639;28;20134;-60
2022/09/01 12:00:41;;;;;;;7.75;2.40;;;;;;;27.94;25.25;101468.91;5113490;28;20807;-60
2022/09/01 12:03:28;;;;;;;8.30;2.45;;;;;;;28.28;25.48;101461.41;5103072;27;20094;-60
2022/09/01 12:06:01;;;;;;;8.48;2.30;;;;;;;28.15;24.02;101461.81;5098881;28;20043;-60
2022/09/01 12:08:33;;;;;;;11.38;3.65;;;;;;;27.84;24.93;101464.13;5106019;28;20528;-60
2022/09/01 12:11:07;;;;;;;6.03;2.47;;;;;;;27.65;25.01;101458.16;5095599;28;20052;-59
2022/09/01 12:13:34;;;;;;;13.48;5.72;;;;;;;27.74;26.08;101461.25;5126912;28;20535;-59
2022/09/01 12:16:05;;;;;;;10.05;5.10;;;;;;;27.80;26.54;101462.13;5111089;27;20071;-60